This is the latest recevied weather packets stored in our database for station/object K4SHP-16. If no packets are shown the sender has not sent any weather packets the latest 10 day(s).
| Time | Temp. | Humidity | Pressure | Rain* | Wind** | Luminosity | Snow |
|---|---|---|---|---|---|---|---|
| 1777500545 | 28.33° C | 60% | 1009.1 hPa | 0 mm | - | - | - |
| 1777498025 | 30° C | 60% | 1009.2 hPa | 0 mm | - | - | - |
| 1777497485 | 29.44° C | 60% | 1009.2 hPa | 0 mm | - | - | - |
| 1777488866 | 28.33° C | 65% | 1011.3 hPa | 0 mm | - | - | - |
| 1777488305 | 27.78° C | 68% | 1011.7 hPa | 0 mm | - | - | - |
| 1777484164 | 25° C | 76% | 1012.7 hPa | 0 mm | - | - | - |
| 1777482544 | 23.33° C | 80% | 1013.2 hPa | 0 mm | - | - | - |
| 1777479484 | 21.11° C | 85% | 1013.9 hPa | 0 mm | - | - | - |
| 1777476964 | 20.56° C | 84% | 1014.7 hPa | 0 mm | - | - | - |
| 1777471744 | 19.44° C | 86% | 1015 hPa | 0 mm | - | - | - |
| 1777471204 | 18.89° C | 87% | 1015.2 hPa | 0 mm | - | - | - |
| 1777470844 | 18.89° C | 89% | 1015.3 hPa | 0 mm | - | - | - |
| 1777470304 | 18.33° C | 89% | 1015.4 hPa | 0 mm | - | - | - |
| 1777469764 | 18.33° C | 89% | 1015.3 hPa | 0 mm | - | - | - |
| 1777467625 | 17.22° C | 92% | 1015.9 hPa | 0 mm | - | - | - |
| 1777466704 | 16.67° C | 92% | 1015.9 hPa | 0 mm | - | - | - |
| 1777464544 | 15.56° C | 94% | 1015.7 hPa | 0 mm | - | - | - |
| 1777462564 | 13.89° C | 94% | 1016 hPa | 0 mm | - | - | - |
| 1777457884 | 12.22° C | 93% | 1015.4 hPa | 0 mm | - | - | - |
| 1777456444 | 12.78° C | 93% | 1015.4 hPa | 0 mm | - | - | - |
| 1777455904 | 12.22° C | 93% | 1015.6 hPa | 0 mm | - | - | - |
| 1777452304 | 12.78° C | 92% | 1015.2 hPa | 0 mm | - | - | - |
| 1777446004 | 13.33° C | 92% | 1015.8 hPa | 0 mm | - | - | - |
| 1777442944 | 12.78° C | 92% | 1016.3 hPa | 0 mm | - | - | - |
| 1777442404 | 12.22° C | 92% | 1016.1 hPa | 0 mm | - | - | - |
* Rain latest hour (hover to see other rain measurements)
** Current wind speed in m/s (hover to see current wind gust speed)